Time;durP1;ratioP1;P1;durP2;ratioP2;P2;SDS_P1;SDS_P2;PMS_P1;PMS_P2;Temp;Humidity;BMP_temperature;BMP_pressure;BME280_temperature;BME280_humidity;BME280_pressure;Samples;Min_cycle;Max_cycle;Signal;HPM_P1;HPM_P2
2024/01/10 00:01:16;;;;;;;;;;;;;;;;;;5053706;28;19923;-70
2024/01/10 00:03:42;;;;;;;;;;;;;;;;;;5054387;28;20370;-69
2024/01/10 00:06:08;;;;;;;;;;;;;;;;;;5054153;28;20358;-69
2024/01/10 00:08:34;;;;;;;;;;;;;;;;;;5053691;28;19912;-69
2024/01/10 00:11:00;;;;;;;;;;;;;;;;;;5053993;28;19954;-69
2024/01/10 00:13:27;;;;;;;;;;;;;;;;;;5054028;28;20071;-69
2024/01/10 00:15:55;;;;;;;;;;;;;;;;;;5052355;28;19960;-69
2024/01/10 00:18:21;;;;;;;;;;;;;;;;;;5053922;28;19916;-69
2024/01/10 00:20:47;;;;;;;;;;;;;;;;;;5053782;28;19924;-69
2024/01/10 00:23:13;;;;;;;;;;;;;;;;;;5053499;28;19908;-69
2024/01/10 00:25:39;;;;;;;;;;;;;;;;;;5053804;28;19963;-69
2024/01/10 00:28:05;;;;;;;;;;;;;;;;;;5053402;28;19909;-68
2024/01/10 00:30:31;;;;;;;;;;;;;;;;;;5052885;28;20003;-69
2024/01/10 00:32:57;;;;;;;;;;;;;;;;;;5053750;28;19955;-69
2024/01/10 00:35:23;;;;;;;;;;;;;;;;;;5052095;28;19916;-69
2024/01/10 00:37:49;;;;;;;;;;;;;;;;;;5053699;28;19909;-69
2024/01/10 00:40:15;;;;;;;;;;;;;;;;;;5053763;28;19924;-69
2024/01/10 00:42:40;;;;;;;;;;;;;;;;;;5053177;28;19909;-69
2024/01/10 00:45:06;;;;;;;;;;;;;;;;;;5052390;28;19920;-69
2024/01/10 00:47:32;;;;;;;;;;;;;;;;;;5053577;28;19995;-70
2024/01/10 00:49:58;;;;;;;;;;;;;;;;;;5051837;28;19909;-69
2024/01/10 00:52:24;;;;;;;;;;;;;;;;;;5053742;28;19917;-70
2024/01/10 00:54:50;;;;;;;;;;;;;;;;;;5053539;28;19999;-69
2024/01/10 00:57:16;;;;;;;;;;;;;;;;;;5052942;28;19974;-69
2024/01/10 00:59:42;;;;;;;;;;;;;;;;;;5053282;28;19913;-69
2024/01/10 01:02:08;;;;;;;;;;;;;;;;;;5053405;28;19913;-69
2024/01/10 01:04:34;;;;;;;;;;;;;;;;;;5052946;28;19913;-69
2024/01/10 01:07:00;;;;;;;;;;;;;;;;;;5053586;28;19975;-69
2024/01/10 01:09:26;;;;;;;;;;;;;;;;;;5053394;28;19909;-69
2024/01/10 01:11:52;;;;;;;;;;;;;;;;;;5052980;28;19909;-69
2024/01/10 01:14:18;;;;;;;;;;;;;;;;;;5053346;28;19908;-69
2024/01/10 01:16:44;;;;;;;;;;;;;;;;;;5053227;28;19963;-69
2024/01/10 01:19:10;;;;;;;;;;;;;;;;;;5052722;28;19944;-69
2024/01/10 01:21:36;;;;;;;;;;;;;;;;;;5053403;28;19958;-69
2024/01/10 01:24:01;;;;;;;;;;;;;;;;;;5051964;28;19951;-69
2024/01/10 01:26:27;;;;;;;;;;;;;;;;;;5052788;28;19909;-69
2024/01/10 01:28:53;;;;;;;;;;;;;;;;;;5053189;28;19944;-69
2024/01/10 01:31:19;;;;;;;;;;;;;;;;;;5052747;28;20288;-69
2024/01/10 01:33:45;;;;;;;;;;;;;;;;;;5053207;28;19909;-69
2024/01/10 01:36:11;;;;;;;;;;;;;;;;;;5053080;28;19909;-70
2024/01/10 01:38:37;;;;;;;;;;;;;;;;;;5051392;28;19916;-69
2024/01/10 01:41:03;;;;;;;;;;;;;;;;;;5053572;28;19967;-70
2024/01/10 01:43:29;;;;;;;;;;;;;;;;;;5055525;28;19909;-70
2024/01/10 01:45:55;;;;;;;;;;;;;;;;;;5056308;28;19916;-69
2024/01/10 01:48:21;;;;;;;;;;;;;;;;;;5056733;28;20007;-70
2024/01/10 01:50:47;;;;;;;;;;;;;;;;;;5056684;28;19909;-70
2024/01/10 01:53:13;;;;;;;;;;;;;;;;;;5056257;28;19909;-69
2024/01/10 01:55:38;;;;;;;;;;;;;;;;;;5056342;28;19974;-69
2024/01/10 01:58:04;;;;;;;;;;;;;;;;;;5056725;28;19959;-70
2024/01/10 02:00:31;;;;;;;;;;;;;;;;;;5054840;28;19917;-69
2024/01/10 02:02:57;;;;;;;;;;;;;;;;;;5056379;28;19946;-69
2024/01/10 02:05:23;;;;;;;;;;;;;;;;;;5056387;28;19909;-70
2024/01/10 02:07:49;;;;;;;;;;;;;;;;;;5056012;28;19916;-69
2024/01/10 02:10:15;;;;;;;;;;;;;;;;;;5056225;28;19909;-69
2024/01/10 02:12:40;;;;;;;;;;;;;;;;;;5056275;28;19955;-69
2024/01/10 02:15:06;;;;;;;;;;;;;;;;;;5054436;28;19913;-69
2024/01/10 02:17:32;;;;;;;;;;;;;;;;;;5056081;28;19909;-69
2024/01/10 02:19:58;;;;;;;;;;;;;;;;;;5056011;28;20335;-69
2024/01/10 02:22:24;;;;;;;;;;;;;;;;;;5055590;28;20254;-69
2024/01/10 02:24:50;;;;;;;;;;;;;;;;;;5055896;28;20339;-69
2024/01/10 02:27:16;;;;;;;;;;;;;;;;;;5056028;28;20289;-69
2024/01/10 02:29:42;;;;;;;;;;;;;;;;;;5054184;28;20318;-69
2024/01/10 02:32:08;;;;;;;;;;;;;;;;;;5055859;28;19908;-69
2024/01/10 02:34:34;;;;;;;;;;;;;;;;;;5055492;28;19912;-70
2024/01/10 02:37:00;;;;;;;;;;;;;;;;;;5055646;28;19976;-69
2024/01/10 02:39:26;;;;;;;;;;;;;;;;;;5055673;28;19924;-69
2024/01/10 02:41:52;;;;;;;;;;;;;;;;;;5055406;28;19917;-69
2024/01/10 02:44:19;;;;;;;;;;;;;;;;;;5055643;28;19912;-70
2024/01/10 02:46:45;;;;;;;;;;;;;;;;;;5055663;28;19960;-68
2024/01/10 02:49:11;;;;;;;;;;;;;;;;;;5055121;28;20231;-68
2024/01/10 02:51:37;;;;;;;;;;;;;;;;;;5054272;28;19915;-68
2024/01/10 02:54:03;;;;;;;;;;;;;;;;;;5053153;28;20393;-69
2024/01/10 02:56:29;;;;;;;;;;;;;;;;;;5054837;28;19928;-69
2024/01/10 02:58:55;;;;;;;;;;;;;;;;;;5054033;28;19912;-68
2024/01/10 03:01:21;;;;;;;;;;;;;;;;;;5055248;28;19920;-69
2024/01/10 03:03:47;;;;;;;;;;;;;;;;;;5055029;28;19941;-69
2024/01/10 03:06:13;;;;;;;;;;;;;;;;;;5055214;28;19909;-69
2024/01/10 03:08:39;;;;;;;;;;;;;;;;;;5053835;28;19916;-69
2024/01/10 03:11:05;;;;;;;;;;;;;;;;;;5053441;28;19996;-68
2024/01/10 03:13:30;;;;;;;;;;;;;;;;;;5055155;28;19913;-68
2024/01/10 03:15:56;;;;;;;;;;;;;;;;;;5055181;28;19908;-68
2024/01/10 03:18:22;;;;;;;;;;;;;;;;;;5053278;28;19908;-69
2024/01/10 03:20:48;;;;;;;;;;;;;;;;;;5054799;28;19917;-68
2024/01/10 03:23:14;;;;;;;;;;;;;;;;;;5054894;28;19913;-68
2024/01/10 03:25:40;;;;;;;;;;;;;;;;;;5054418;28;20314;-69
2024/01/10 03:28:06;;;;;;;;;;;;;;;;;;5055317;28;19982;-68
2024/01/10 03:30:32;;;;;;;;;;;;;;;;;;5055334;28;19908;-69
2024/01/10 03:32:58;;;;;;;;;;;;;;;;;;5054302;28;19954;-71
2024/01/10 03:35:24;;;;;;;;;;;;;;;;;;5054591;28;19956;-69
2024/01/10 03:37:50;;;;;;;;;;;;;;;;;;5054223;28;19909;-68
2024/01/10 03:40:16;;;;;;;;;;;;;;;;;;5054679;28;19923;-69
2024/01/10 03:42:42;;;;;;;;;;;;;;;;;;5054472;28;19970;-69
2024/01/10 03:45:08;;;;;;;;;;;;;;;;;;5054139;28;19909;-69
2024/01/10 03:47:34;;;;;;;;;;;;;;;;;;5054569;28;20487;-69
2024/01/10 03:50:00;;;;;;;;;;;;;;;;;;5054582;28;19909;-69
2024/01/10 03:52:26;;;;;;;;;;;;;;;;;;5054072;28;19963;-69
2024/01/10 03:54:52;;;;;;;;;;;;;;;;;;5053071;28;19909;-69
2024/01/10 03:57:18;;;;;;;;;;;;;;;;;;5052826;28;19956;-69
2024/01/10 03:59:44;;;;;;;;;;;;;;;;;;5053711;28;19923;-69
2024/01/10 04:02:09;;;;;;;;;;;;;;;;;;5054082;28;19908;-69
2024/01/10 04:04:35;;;;;;;;;;;;;;;;;;5053918;28;19909;-69
2024/01/10 04:07:01;;;;;;;;;;;;;;;;;;5053816;28;19909;-69
2024/01/10 04:09:27;;;;;;;;;;;;;;;;;;5054043;28;19909;-69
2024/01/10 04:11:53;;;;;;;;;;;;;;;;;;5054132;28;20365;-69
2024/01/10 04:14:19;;;;;;;;;;;;;;;;;;5053958;28;20372;-69
2024/01/10 04:16:45;;;;;;;;;;;;;;;;;;5052636;28;20055;-69
2024/01/10 04:19:11;;;;;;;;;;;;;;;;;;5053816;28;20316;-69
2024/01/10 04:21:37;;;;;;;;;;;;;;;;;;5052064;28;20288;-69
2024/01/10 04:24:03;;;;;;;;;;;;;;;;;;5053811;28;19909;-69
2024/01/10 04:26:29;;;;;;;;;;;;;;;;;;5053779;28;19954;-69
2024/01/10 04:28:55;;;;;;;;;;;;;;;;;;5053346;28;19909;-69
2024/01/10 04:31:21;;;;;;;;;;;;;;;;;;5053716;28;19940;-69
2024/01/10 04:33:47;;;;;;;;;;;;;;;;;;5054170;28;20408;-69
2024/01/10 04:36:13;;;;;;;;;;;;;;;;;;5053295;28;19909;-69
2024/01/10 04:38:38;;;;;;;;;;;;;;;;;;5052371;28;19909;-69
2024/01/10 04:41:04;;;;;;;;;;;;;;;;;;5053566;28;19928;-69
2024/01/10 04:43:30;;;;;;;;;;;;;;;;;;5053203;28;19962;-69
2024/01/10 04:45:56;;;;;;;;;;;;;;;;;;5053728;28;20035;-70
2024/01/10 04:48:22;;;;;;;;;;;;;;;;;;5053284;28;19908;-69
2024/01/10 04:50:48;;;;;;;;;;;;;;;;;;5053586;28;19909;-69
2024/01/10 04:53:14;;;;;;;;;;;;;;;;;;5053676;28;19919;-69
2024/01/10 04:55:40;;;;;;;;;;;;;;;;;;5053072;28;19916;-69
2024/01/10 04:58:06;;;;;;;;;;;;;;;;;;5053710;28;19917;-69
2024/01/10 05:00:32;;;;;;;;;;;;;;;;;;5052026;28;20004;-69
2024/01/10 05:02:58;;;;;;;;;;;;;;;;;;5053146;28;19935;-69
2024/01/10 05:05:24;;;;;;;;;;;;;;;;;;5053364;28;19939;-69
2024/01/10 05:07:50;;;;;;;;;;;;;;;;;;5053382;28;19912;-69
2024/01/10 05:10:16;;;;;;;;;;;;;;;;;;5052920;28;19959;-69
2024/01/10 05:12:42;;;;;;;;;;;;;;;;;;5053379;28;19971;-69
2024/01/10 05:15:08;;;;;;;;;;;;;;;;;;5053290;28;19908;-69
2024/01/10 05:17:34;;;;;;;;;;;;;;;;;;5055861;28;19916;-69
2024/01/10 05:20:01;;;;;;;;;;;;;;;;;;5057185;28;19912;-69
2024/01/10 05:22:27;;;;;;;;;;;;;;;;;;5055779;28;20003;-69
2024/01/10 05:24:52;;;;;;;;;;;;;;;;;;5056717;28;20000;-69
2024/01/10 05:27:18;;;;;;;;;;;;;;;;;;5057107;28;19916;-69
2024/01/10 05:29:46;;;;;;;;;;;;;;;;;;5057098;28;19913;-69
2024/01/10 05:32:11;;;;;;;;;;;;;;;;;;5056556;28;19947;-69
2024/01/10 05:34:37;;;;;;;;;;;;;;;;;;5056953;28;19959;-69
2024/01/10 05:37:04;;;;;;;;;;;;;;;;;;5056756;28;19909;-69
2024/01/10 05:39:30;;;;;;;;;;;;;;;;;;5056369;28;19909;-69
2024/01/10 05:41:55;;;;;;;;;;;;;;;;;;5056719;28;20039;-69
2024/01/10 05:44:21;;;;;;;;;;;;;;;;;;5056780;28;19912;-69
2024/01/10 05:46:47;;;;;;;;;;;;;;;;;;5056311;28;19913;-69
2024/01/10 05:49:13;;;;;;;;;;;;;;;;;;5056756;28;19948;-69
2024/01/10 05:51:39;;;;;;;;;;;;;;;;;;5056238;28;19916;-69
2024/01/10 05:54:07;;;;;;;;;;;;;;;;;;5056583;28;19960;-69
2024/01/10 05:56:33;;;;;;;;;;;;;;;;;;5055160;28;20360;-68
2024/01/10 05:58:59;;;;;;;;;;;;;;;;;;5056134;28;19999;-69
2024/01/10 06:01:25;;;;;;;;;;;;;;;;;;5056360;28;19927;-69
2024/01/10 06:03:51;;;;;;;;;;;;;;;;;;5056322;28;20353;-69
2024/01/10 06:06:17;;;;;;;;;;;;;;;;;;5054550;28;19909;-69
2024/01/10 06:08:43;;;;;;;;;;;;;;;;;;5056429;28;20350;-69
2024/01/10 06:11:09;;;;;;;;;;;;;;;;;;5056254;28;20003;-69
2024/01/10 06:13:35;;;;;;;;;;;;;;;;;;5055801;28;19909;-69
2024/01/10 06:16:02;;;;;;;;;;;;;;;;;;5056117;28;19932;-69
2024/01/10 06:18:28;;;;;;;;;;;;;;;;;;5054830;28;20443;-69
2024/01/10 06:20:54;;;;;;;;;;;;;;;;;;5055671;28;19967;-69
2024/01/10 06:23:20;;;;;;;;;;;;;;;;;;5056215;28;19998;-69
2024/01/10 06:25:46;;;;;;;;;;;;;;;;;;5056115;28;20276;-69
2024/01/10 06:28:12;;;;;;;;;;;;;;;;;;5055630;28;20308;-69
2024/01/10 06:30:38;;;;;;;;;;;;;;;;;;5054628;28;20338;-69
2024/01/10 06:33:06;;;;;;;;;;;;;;;;;;5056037;28;19920;-69
2024/01/10 06:35:32;;;;;;;;;;;;;;;;;;5055441;28;19909;-69
2024/01/10 06:37:58;;;;;;;;;;;;;;;;;;5055995;28;19913;-69
2024/01/10 06:40:24;;;;;;;;;;;;;;;;;;5056127;28;20250;-69
2024/01/10 06:42:50;;;;;;;;;;;;;;;;;;5055252;28;19930;-69
2024/01/10 06:45:16;;;;;;;;;;;;;;;;;;5055960;28;19909;-69
2024/01/10 06:47:42;;;;;;;;;;;;;;;;;;5055533;28;19939;-69
2024/01/10 06:50:08;;;;;;;;;;;;;;;;;;5055577;28;19948;-69
2024/01/10 06:52:34;;;;;;;;;;;;;;;;;;5055436;28;19913;-69
2024/01/10 06:55:00;;;;;;;;;;;;;;;;;;5054870;28;19916;-68
2024/01/10 06:57:26;;;;;;;;;;;;;;;;;;5055367;28;19917;-69
2024/01/10 06:59:52;;;;;;;;;;;;;;;;;;5055180;28;19952;-68
2024/01/10 07:02:18;;;;;;;;;;;;;;;;;;5053560;28;19948;-68
2024/01/10 07:04:47;;;;;;;;;;;;;;;;;;5055243;28;19936;-68
2024/01/10 07:07:13;;;;;;;;;;;;;;;;;;5055166;28;20354;-68
2024/01/10 07:09:40;;;;;;;;;;;;;;;;;;5054857;28;19909;-69
2024/01/10 07:12:06;;;;;;;;;;;;;;;;;;5054990;28;19913;-68
2024/01/10 07:14:32;;;;;;;;;;;;;;;;;;5053767;28;20017;-68
2024/01/10 07:16:58;;;;;;;;;;;;;;;;;;5054686;28;20280;-68
2024/01/10 07:19:24;;;;;;;;;;;;;;;;;;5053687;28;20289;-68
2024/01/10 07:21:50;;;;;;;;;;;;;;;;;;5053654;28;20262;-68
2024/01/10 07:24:16;;;;;;;;;;;;;;;;;;5054492;28;19909;-68
2024/01/10 07:26:42;;;;;;;;;;;;;;;;;;5055128;28;19909;-68
2024/01/10 07:29:08;;;;;;;;;;;;;;;;;;5054702;28;19909;-69
2024/01/10 07:31:34;;;;;;;;;;;;;;;;;;5054421;28;19919;-69
2024/01/10 07:34:00;;;;;;;;;;;;;;;;;;5053404;28;19909;-68
2024/01/10 07:36:31;;;;;;;;;;;;;;;;;;5054627;28;19909;-69
2024/01/10 07:38:57;;;;;;;;;;;;;;;;;;5053772;28;19909;-69
2024/01/10 07:41:23;;;;;;;;;;;;;;;;;;5054511;28;19917;-69
2024/01/10 07:43:49;;;;;;;;;;;;;;;;;;5054420;28;20001;-68
2024/01/10 07:46:15;;;;;;;;;;;;;;;;;;5052722;28;19908;-69
2024/01/10 07:48:41;;;;;;;;;;;;;;;;;;5054514;28;19909;-69
2024/01/10 07:51:07;;;;;;;;;;;;;;;;;;5053994;28;19909;-69
2024/01/10 07:53:33;;;;;;;;;;;;;;;;;;5054424;28;19954;-69
2024/01/10 07:55:59;;;;;;;;;;;;;;;;;;5054190;28;19920;-69
2024/01/10 07:58:25;;;;;;;;;;;;;;;;;;5054132;28;20004;-69
2024/01/10 08:00:51;;;;;;;;;;;;;;;;;;5054202;28;19917;-68
2024/01/10 08:03:17;;;;;;;;;;;;;;;;;;5054250;28;20316;-69
2024/01/10 08:05:43;;;;;;;;;;;;;;;;;;5054173;28;19963;-68
2024/01/10 08:08:09;;;;;;;;;;;;;;;;;;5054105;28;19976;-69
2024/01/10 08:10:35;;;;;;;;;;;;;;;;;;5052804;28;19909;-68
2024/01/10 08:13:01;;;;;;;;;;;;;;;;;;5053599;28;19935;-69
2024/01/10 08:15:28;;;;;;;;;;;;;;;;;;5053942;28;19964;-68
2024/01/10 08:17:54;;;;;;;;;;;;;;;;;;5054008;28;19919;-68
2024/01/10 08:20:20;;;;;;;;;;;;;;;;;;5053353;28;19917;-69
2024/01/10 08:22:46;;;;;;;;;;;;;;;;;;5053883;28;19912;-69
2024/01/10 08:25:15;;;;;;;;;;;;;;;;;;5052842;28;19909;-69
2024/01/10 08:27:41;;;;;;;;;;;;;;;;;;5053408;28;19909;-69
2024/01/10 08:30:09;;;;;;;;;;;;;;;;;;5053810;28;20000;-69
2024/01/10 08:32:36;;;;;;;;;;;;;;;;;;5053674;28;19913;-69
2024/01/10 08:35:04;;;;;;;;;;;;;;;;;;5051941;28;20314;-69
2024/01/10 08:37:30;;;;;;;;;;;;;;;;;;5053645;28;20324;-69
2024/01/10 08:39:56;;;;;;;;;;;;;;;;;;5052274;28;19995;-68
2024/01/10 08:42:22;;;;;;;;;;;;;;;;;;5053237;28;20445;-69
2024/01/10 08:44:49;;;;;;;;;;;;;;;;;;5053641;28;20258;-68
2024/01/10 08:47:15;;;;;;;;;;;;;;;;;;5053501;28;19916;-69
2024/01/10 08:49:41;;;;;;;;;;;;;;;;;;5053428;28;19909;-69
2024/01/10 08:52:08;;;;;;;;;;;;;;;;;;5055920;28;19915;-69
2024/01/10 08:54:33;;;;;;;;;;;;;;;;;;5057247;28;19916;-68
2024/01/10 08:57:00;;;;;;;;;;;;;;;;;;5057434;28;19921;-69
2024/01/10 08:59:27;;;;;;;;;;;;;;;;;;5057833;28;20266;-69
2024/01/10 09:01:53;;;;;;;;;;;;;;;;;;5057150;28;19912;-69
2024/01/10 09:04:19;;;;;;;;;;;;;;;;;;5057428;28;20047;-69
2024/01/10 09:06:46;;;;;;;;;;;;;;;;;;5057401;28;20344;-69
2024/01/10 09:09:13;;;;;;;;;;;;;;;;;;5055792;28;19962;-69
2024/01/10 09:11:38;;;;;;;;;;;;;;;;;;5057388;28;19913;-69
2024/01/10 09:14:04;;;;;;;;;;;;;;;;;;5057201;28;19979;-69
2024/01/10 09:16:30;;;;;;;;;;;;;;;;;;5056939;28;20273;-69
2024/01/10 09:18:57;;;;;;;;;;;;;;;;;;5056024;28;19909;-69
2024/01/10 09:21:23;;;;;;;;;;;;;;;;;;5057299;28;19963;-69
2024/01/10 09:23:51;;;;;;;;;;;;;;;;;;5056824;28;20331;-69
2024/01/10 09:26:17;;;;;;;;;;;;;;;;;;5057149;28;19955;-69
2024/01/10 09:28:43;;;;;;;;;;;;;;;;;;5057141;28;20327;-69
2024/01/10 09:31:09;;;;;;;;;;;;;;;;;;5055639;28;19909;-69
2024/01/10 09:33:35;;;;;;;;;;;;;;;;;;5057091;28;19909;-69
2024/01/10 09:36:01;;;;;;;;;;;;;;;;;;5056927;28;19962;-69
2024/01/10 09:38:27;;;;;;;;;;;;;;;;;;5056528;28;19908;-69
2024/01/10 09:40:53;;;;;;;;;;;;;;;;;;5056761;28;19916;-70
2024/01/10 09:43:19;;;;;;;;;;;;;;;;;;5056835;28;19915;-69
2024/01/10 09:45:46;;;;;;;;;;;;;;;;;;5056421;28;19971;-69
2024/01/10 09:48:14;;;;;;;;;;;;;;;;;;5052975;28;19913;-67
2024/01/10 09:50:39;;;;;;;;;;;;;;;;;;5054603;28;20375;-67
2024/01/10 09:53:08;;;;;;;;;;;;;;;;;;5056553;28;20004;-69
2024/01/10 09:55:34;;;;;;;;;;;;;;;;;;5056347;28;20388;-66
2024/01/10 09:58:00;;;;;;;;;;;;;;;;;;5055161;28;19928;-67
2024/01/10 10:00:26;;;;;;;;;;;;;;;;;;5056358;28;20281;-68
2024/01/10 10:02:52;;;;;;;;;;;;;;;;;;5055553;28;19919;-67
2024/01/10 10:05:18;;;;;;;;;;;;;;;;;;5055744;28;20007;-67
2024/01/10 10:07:44;;;;;;;;;;;;;;;;;;5054720;28;19920;-68
2024/01/10 10:10:12;;;;;;;;;;;;;;;;;;5055841;28;20334;-68
2024/01/10 10:12:38;;;;;;;;;;;;;;;;;;5055788;28;19908;-68
2024/01/10 10:15:04;;;;;;;;;;;;;;;;;;5055751;28;19924;-67
2024/01/10 10:17:30;;;;;;;;;;;;;;;;;;5055984;28;19909;-67
2024/01/10 10:19:56;;;;;;;;;;;;;;;;;;5055025;28;19973;-67
2024/01/10 10:22:21;;;;;;;;;;;;;;;;;;5055994;28;20448;-66
2024/01/10 10:24:47;;;;;;;;;;;;;;;;;;5055864;28;20357;-66
2024/01/10 10:27:14;;;;;;;;;;;;;;;;;;5054112;28;20379;-66
2024/01/10 10:29:40;;;;;;;;;;;;;;;;;;5055074;28;19913;-66
2024/01/10 10:32:08;;;;;;;;;;;;;;;;;;5056747;28;19936;-68
2024/01/10 10:34:34;;;;;;;;;;;;;;;;;;5053188;28;19978;-69
2024/01/10 10:37:00;;;;;;;;;;;;;;;;;;5053676;28;19928;-69
2024/01/10 10:39:26;;;;;;;;;;;;;;;;;;5055593;28;19908;-69
2024/01/10 10:41:54;;;;;;;;;;;;;;;;;;5055289;28;19912;-69
2024/01/10 10:44:20;;;;;;;;;;;;;;;;;;5055625;28;19940;-69
2024/01/10 10:46:46;;;;;;;;;;;;;;;;;;5055730;28;20385;-69
2024/01/10 10:49:13;;;;;;;;;;;;;;;;;;5054262;28;20309;-69
2024/01/10 10:51:38;;;;;;;;;;;;;;;;;;5055521;28;19916;-69
2024/01/10 10:54:04;;;;;;;;;;;;;;;;;;5055078;28;19909;-69
2024/01/10 10:56:31;;;;;;;;;;;;;;;;;;5055291;28;19921;-69
2024/01/10 10:58:56;;;;;;;;;;;;;;;;;;5055612;28;19952;-69
2024/01/10 11:01:22;;;;;;;;;;;;;;;;;;5054836;28;20039;-69
2024/01/10 11:03:49;;;;;;;;;;;;;;;;;;5055205;28;19931;-69
2024/01/10 11:06:15;;;;;;;;;;;;;;;;;;5055196;28;19954;-69
2024/01/10 11:08:41;;;;;;;;;;;;;;;;;;5054799;28;20375;-69
2024/01/10 11:11:07;;;;;;;;;;;;;;;;;;5053863;28;20297;-69
2024/01/10 11:13:32;;;;;;;;;;;;;;;;;;5054432;28;19915;-69
2024/01/10 11:15:58;;;;;;;;;;;;;;;;;;5054386;28;19913;-69
2024/01/10 11:18:24;;;;;;;;;;;;;;;;;;5055055;28;19917;-70
2024/01/10 11:20:50;;;;;;;;;;;;;;;;;;5054913;28;19924;-69
2024/01/10 11:23:16;;;;;;;;;;;;;;;;;;5054521;28;20020;-69
2024/01/10 11:25:42;;;;;;;;;;;;;;;;;;5054825;28;19909;-70
2024/01/10 11:28:08;;;;;;;;;;;;;;;;;;5054902;28;19913;-69
2024/01/10 11:30:35;;;;;;;;;;;;;;;;;;5053185;28;20323;-69
2024/01/10 11:33:00;;;;;;;;;;;;;;;;;;5055178;28;19909;-69
2024/01/10 11:35:30;;;;;;;;;;;;;;;;;;5054773;28;19909;-69
2024/01/10 11:37:56;;;;;;;;;;;;;;;;;;5054378;28;19915;-69
2024/01/10 11:40:22;;;;;;;;;;;;;;;;;;5054589;28;20011;-69
2024/01/10 11:42:48;;;;;;;;;;;;;;;;;;5054517;28;19912;-69
2024/01/10 11:45:14;;;;;;;;;;;;;;;;;;5054169;28;19966;-68
2024/01/10 11:47:41;;;;;;;;;;;;;;;;;;5054540;28;20337;-68
2024/01/10 11:50:07;;;;;;;;;;;;;;;;;;5054409;28;19908;-68
2024/01/10 11:52:34;;;;;;;;;;;;;;;;;;5053957;28;19909;-69
2024/01/10 11:55:00;;;;;;;;;;;;;;;;;;5054174;28;20312;-68
2024/01/10 11:57:26;;;;;;;;;;;;;;;;;;5054284;28;19975;-68
2024/01/10 11:59:52;;;;;;;;;;;;;;;;;;5054722;28;19952;-69
2024/01/10 12:02:20;;;;;;;;;;;;;;;;;;5053877;28;20214;-69
2024/01/10 12:04:46;;;;;;;;;;;;;;;;;;5054096;28;19908;-69
2024/01/10 12:07:12;;;;;;;;;;;;;;;;;;5054455;28;19909;-69
2024/01/10 12:09:38;;;;;;;;;;;;;;;;;;5054035;28;19912;-69
2024/01/10 12:12:04;;;;;;;;;;;;;;;;;;5053926;28;19915;-69
2024/01/10 12:14:30;;;;;;;;;;;;;;;;;;5054096;28;19917;-68
2024/01/10 12:16:56;;;;;;;;;;;;;;;;;;5054068;28;19958;-68
2024/01/10 12:19:22;;;;;;;;;;;;;;;;;;5053572;28;19909;-68
2024/01/10 12:21:48;;;;;;;;;;;;;;;;;;5053928;28;19956;-68
2024/01/10 12:24:14;;;;;;;;;;;;;;;;;;5053864;28;19913;-68
2024/01/10 12:26:41;;;;;;;;;;;;;;;;;;5053311;28;20451;-68
2024/01/10 12:29:07;;;;;;;;;;;;;;;;;;5054096;28;19909;-68
2024/01/10 12:31:33;;;;;;;;;;;;;;;;;;5053805;28;20358;-68
2024/01/10 12:33:59;;;;;;;;;;;;;;;;;;5052037;28;19908;-68
2024/01/10 12:36:25;;;;;;;;;;;;;;;;;;5052529;28;19912;-69
2024/01/10 12:38:51;;;;;;;;;;;;;;;;;;5054199;28;19950;-68
2024/01/10 12:41:17;;;;;;;;;;;;;;;;;;5053213;28;19917;-68
2024/01/10 12:43:43;;;;;;;;;;;;;;;;;;5053665;28;20258;-68
2024/01/10 12:46:10;;;;;;;;;;;;;;;;;;5053691;28;20250;-68
2024/01/10 12:48:37;;;;;;;;;;;;;;;;;;5053036;28;20258;-68
2024/01/10 12:51:05;;;;;;;;;;;;;;;;;;5053577;28;19964;-69
2024/01/10 12:53:31;;;;;;;;;;;;;;;;;;5053138;28;19909;-69
2024/01/10 12:55:57;;;;;;;;;;;;;;;;;;5053383;28;19928;-68
2024/01/10 12:58:23;;;;;;;;;;;;;;;;;;5053545;28;19963;-69
2024/01/10 13:00:49;;;;;;;;;;;;;;;;;;5053209;28;20369;-69
2024/01/10 13:03:15;;;;;;;;;;;;;;;;;;5052216;28;20004;-68
2024/01/10 13:05:41;;;;;;;;;;;;;;;;;;5053461;28;19909;-68
2024/01/10 13:08:07;;;;;;;;;;;;;;;;;;5053028;28;19908;-68
2024/01/10 13:10:33;;;;;;;;;;;;;;;;;;5053277;28;19909;-69
2024/01/10 13:12:59;;;;;;;;;;;;;;;;;;5053355;28;19916;-69
2024/01/10 13:15:25;;;;;;;;;;;;;;;;;;5052928;28;19916;-69
2024/01/10 13:17:51;;;;;;;;;;;;;;;;;;5053346;28;19909;-69
2024/01/10 13:20:17;;;;;;;;;;;;;;;;;;5053475;28;19917;-69
2024/01/10 13:22:43;;;;;;;;;;;;;;;;;;5051602;28;20003;-69
2024/01/10 13:25:09;;;;;;;;;;;;;;;;;;5053428;28;19959;-69
2024/01/10 13:27:35;;;;;;;;;;;;;;;;;;5053470;28;20288;-69
2024/01/10 13:30:01;;;;;;;;;;;;;;;;;;5052854;28;20330;-69
2024/01/10 13:32:27;;;;;;;;;;;;;;;;;;5051938;28;20327;-68
2024/01/10 13:34:53;;;;;;;;;;;;;;;;;;5053062;28;20353;-68
2024/01/10 13:37:19;;;;;;;;;;;;;;;;;;5052331;28;19915;-68
2024/01/10 13:39:45;;;;;;;;;;;;;;;;;;5056983;28;19913;-68
2024/01/10 13:42:11;;;;;;;;;;;;;;;;;;5056916;28;19920;-69
2024/01/10 13:44:38;;;;;;;;;;;;;;;;;;5055155;28;19909;-69
2024/01/10 13:47:04;;;;;;;;;;;;;;;;;;5055550;28;19920;-69
2024/01/10 13:49:30;;;;;;;;;;;;;;;;;;5055368;28;19909;-69
2024/01/10 13:51:56;;;;;;;;;;;;;;;;;;5055303;28;19916;-69
2024/01/10 13:54:22;;;;;;;;;;;;;;;;;;5056624;28;19931;-69
2024/01/10 13:56:48;;;;;;;;;;;;;;;;;;5056215;28;19925;-68
2024/01/10 13:59:14;;;;;;;;;;;;;;;;;;5056538;28;19919;-68
2024/01/10 14:01:40;;;;;;;;;;;;;;;;;;5056396;28;20020;-68
2024/01/10 14:04:06;;;;;;;;;;;;;;;;;;5054736;28;19924;-68
2024/01/10 14:06:32;;;;;;;;;;;;;;;;;;5056422;28;19908;-68
2024/01/10 14:08:58;;;;;;;;;;;;;;;;;;5056343;28;19915;-68
2024/01/10 14:11:24;;;;;;;;;;;;;;;;;;5055910;28;19913;-68
2024/01/10 14:13:52;;;;;;;;;;;;;;;;;;5056274;28;19913;-69
2024/01/10 14:16:18;;;;;;;;;;;;;;;;;;5054949;28;19912;-68
2024/01/10 14:18:44;;;;;;;;;;;;;;;;;;5055813;28;19965;-68
2024/01/10 14:21:10;;;;;;;;;;;;;;;;;;5056004;28;19917;-69
2024/01/10 14:23:36;;;;;;;;;;;;;;;;;;5055064;28;19931;-68
2024/01/10 14:26:05;;;;;;;;;;;;;;;;;;5055635;28;20003;-69
2024/01/10 14:28:32;;;;;;;;;;;;;;;;;;5055993;28;19909;-69
2024/01/10 14:30:58;;;;;;;;;;;;;;;;;;5055889;28;19916;-69
2024/01/10 14:33:26;;;;;;;;;;;;;;;;;;5055533;28;19932;-69
2024/01/10 14:35:52;;;;;;;;;;;;;;;;;;5055855;28;20357;-69
2024/01/10 14:38:18;;;;;;;;;;;;;;;;;;5054498;28;20285;-69
2024/01/10 14:40:44;;;;;;;;;;;;;;;;;;5055117;28;19971;-69
2024/01/10 14:43:09;;;;;;;;;;;;;;;;;;5055671;28;19954;-69
2024/01/10 14:45:36;;;;;;;;;;;;;;;;;;5055716;28;20396;-69
2024/01/10 14:48:03;;;;;;;;;;;;;;;;;;5054951;28;20370;-69
2024/01/10 14:50:29;;;;;;;;;;;;;;;;;;5054740;28;20369;-69
2024/01/10 14:52:57;;;;;;;;;;;;;;;;;;5055524;28;20003;-69
2024/01/10 14:55:23;;;;;;;;;;;;;;;;;;5054825;28;19920;-69
2024/01/10 14:57:49;;;;;;;;;;;;;;;;;;5055838;28;19913;-69
2024/01/10 15:00:15;;;;;;;;;;;;;;;;;;5054876;28;19920;-69
2024/01/10 15:02:41;;;;;;;;;;;;;;;;;;5055447;28;19923;-69
2024/01/10 15:05:07;;;;;;;;;;;;;;;;;;5055294;28;20288;-69
2024/01/10 15:07:33;;;;;;;;;;;;;;;;;;5054913;28;19956;-69
2024/01/10 15:09:59;;;;;;;;;;;;;;;;;;5055333;28;19916;-69
2024/01/10 15:12:25;;;;;;;;;;;;;;;;;;5055373;28;20415;-69
2024/01/10 15:14:51;;;;;;;;;;;;;;;;;;5053510;28;19915;-68
2024/01/10 15:17:17;;;;;;;;;;;;;;;;;;5053790;28;20412;-68
2024/01/10 15:19:45;;;;;;;;;;;;;;;;;;5055007;28;20349;-68
2024/01/10 15:22:11;;;;;;;;;;;;;;;;;;5054589;28;20409;-68
2024/01/10 15:24:38;;;;;;;;;;;;;;;;;;5054912;28;19962;-68
2024/01/10 15:27:09;;;;;;;;;;;;;;;;;;5053572;28;19986;-69
2024/01/10 15:29:36;;;;;;;;;;;;;;;;;;5054761;28;20365;-69
2024/01/10 15:32:02;;;;;;;;;;;;;;;;;;5054855;28;19908;-68
2024/01/10 15:34:28;;;;;;;;;;;;;;;;;;5053458;28;19955;-69
2024/01/10 15:36:54;;;;;;;;;;;;;;;;;;5054261;28;20007;-68
2024/01/10 15:39:20;;;;;;;;;;;;;;;;;;5054666;28;20004;-69
2024/01/10 15:41:46;;;;;;;;;;;;;;;;;;5054777;28;19917;-69
2024/01/10 15:44:12;;;;;;;;;;;;;;;;;;5052876;28;20315;-69
2024/01/10 15:46:38;;;;;;;;;;;;;;;;;;5054544;28;20298;-69
2024/01/10 15:49:04;;;;;;;;;;;;;;;;;;5054439;28;19913;-69
2024/01/10 15:51:30;;;;;;;;;;;;;;;;;;5054117;28;19909;-69
2024/01/10 15:53:58;;;;;;;;;;;;;;;;;;5055023;28;20371;-69
2024/01/10 15:56:23;;;;;;;;;;;;;;;;;;5052469;28;20466;-69
2024/01/10 15:58:49;;;;;;;;;;;;;;;;;;5054343;28;19913;-69
2024/01/10 16:01:15;;;;;;;;;;;;;;;;;;5053740;28;19996;-69
2024/01/10 16:03:41;;;;;;;;;;;;;;;;;;5053989;28;19966;-69
2024/01/10 16:06:09;;;;;;;;;;;;;;;;;;5054198;28;19909;-69
2024/01/10 16:08:35;;;;;;;;;;;;;;;;;;5052919;28;19924;-69
2024/01/10 16:11:01;;;;;;;;;;;;;;;;;;5052492;28;19909;-69
2024/01/10 16:13:27;;;;;;;;;;;;;;;;;;5052746;28;19909;-69
2024/01/10 16:15:53;;;;;;;;;;;;;;;;;;5054049;28;19947;-69
2024/01/10 16:18:19;;;;;;;;;;;;;;;;;;5053620;28;20038;-69
2024/01/10 16:20:45;;;;;;;;;;;;;;;;;;5053125;28;20394;-69
2024/01/10 16:23:11;;;;;;;;;;;;;;;;;;5052668;28;20392;-69
2024/01/10 16:25:37;;;;;;;;;;;;;;;;;;5053476;28;20250;-69
2024/01/10 16:28:03;;;;;;;;;;;;;;;;;;5052455;28;20295;-69
2024/01/10 16:30:29;;;;;;;;;;;;;;;;;;5052564;28;19916;-69
2024/01/10 16:32:55;;;;;;;;;;;;;;;;;;5053449;28;19940;-69
2024/01/10 16:35:21;;;;;;;;;;;;;;;;;;5053780;28;19909;-69
2024/01/10 16:37:47;;;;;;;;;;;;;;;;;;5053918;28;19909;-69